Terminal Aerodrome Forecast
Issued by NWS Jacksonville, FL

Home | Current Version | Previous Version | Text Only | Print | Product List | Glossary On
Versions: 1 2 3 4 5 6 7 8 9 10 11 12 13 14 15 16 17 18 19 20 21 22 23 24 25 26 27 28 29 30 31 32 33 34
000
FTUS42 KJAX 191135 AAA
TAFGNV
TAF AMD
KGNV 191135Z 1912/2012 18012G20KT P6SM BKN015 BKN080 BKN200
     FM191400 18018G30KT P6SM VCSH SCT015 BKN080 BKN150
     FM191730 21030G45KT 1SM +TSRA BR BKN015CB OVC040
     FM191900 24015G25KT P6SM VCSH BKN025 OVC050
     FM200000 23012G20KT P6SM SCT250
     FM200500 28008KT P6SM BKN050=

USA.gov is the U.S. government's official web portal to all federal, state and local government web resources and services.